sensor_id;sensor_type;location;lat;lon;timestamp;temperature;humidity
32334;DHT22;18810;53.040;8.850;2024-03-02T00:00:21;7.70;99.90
32334;DHT22;18810;53.040;8.850;2024-03-02T00:02:49;7.90;99.90
32334;DHT22;18810;53.040;8.850;2024-03-02T00:05:16;7.60;99.90
32334;DHT22;18810;53.040;8.850;2024-03-02T00:07:43;7.70;99.90
32334;DHT22;18810;53.040;8.850;2024-03-02T00:10:11;7.70;99.90
32334;DHT22;18810;53.040;8.850;2024-03-02T00:12:40;8.00;99.90
32334;DHT22;18810;53.040;8.850;2024-03-02T00:15:29;7.80;99.90
32334;DHT22;18810;53.040;8.850;2024-03-02T00:17:57;7.90;99.90
32334;DHT22;18810;53.040;8.850;2024-03-02T00:20:25;7.70;99.90
32334;DHT22;18810;53.040;8.850;2024-03-02T00:27:53;7.70;99.90
32334;DHT22;18810;53.040;8.850;2024-03-02T00:31:16;7.70;99.90
32334;DHT22;18810;53.040;8.850;2024-03-02T00:33:25;7.40;99.90
32334;DHT22;18810;53.040;8.850;2024-03-02T00:35:52;7.60;99.90
32334;DHT22;18810;53.040;8.850;2024-03-02T00:38:18;7.60;99.90
32334;DHT22;18810;53.040;8.850;2024-03-02T00:40:45;7.50;99.90
32334;DHT22;18810;53.040;8.850;2024-03-02T00:46:02;7.60;99.90
32334;DHT22;18810;53.040;8.850;2024-03-02T00:50:57;7.40;99.90
32334;DHT22;18810;53.040;8.850;2024-03-02T00:53:25;7.40;99.90
32334;DHT22;18810;53.040;8.850;2024-03-02T00:55:52;7.40;99.90
32334;DHT22;18810;53.040;8.850;2024-03-02T00:58:17;7.70;99.90
32334;DHT22;18810;53.040;8.850;2024-03-02T01:05:36;7.30;99.90
32334;DHT22;18810;53.040;8.850;2024-03-02T01:08:02;7.40;99.90
32334;DHT22;18810;53.040;8.850;2024-03-02T01:10:28;7.50;99.90
32334;DHT22;18810;53.040;8.850;2024-03-02T01:17:46;7.40;99.90
32334;DHT22;18810;53.040;8.850;2024-03-02T01:20:13;7.30;99.90
32334;DHT22;18810;53.040;8.850;2024-03-02T01:22:38;7.30;99.90
32334;DHT22;18810;53.040;8.850;2024-03-02T01:27:30;7.30;99.90
32334;DHT22;18810;53.040;8.850;2024-03-02T01:42:06;7.20;99.90
32334;DHT22;18810;53.040;8.850;2024-03-02T01:51:50;9.20;99.90
32334;DHT22;18810;53.040;8.850;2024-03-02T02:13:45;6.90;99.90
32334;DHT22;18810;53.040;8.850;2024-03-02T02:28:21;6.90;99.90
32334;DHT22;18810;53.040;8.850;2024-03-02T02:40:31;6.70;99.90
32334;DHT22;18810;53.040;8.850;2024-03-02T02:50:17;7.20;99.90
32334;DHT22;18810;53.040;8.850;2024-03-02T02:52:43;6.60;99.90
32334;DHT22;18810;53.040;8.850;2024-03-02T02:55:10;6.70;99.90
32334;DHT22;18810;53.040;8.850;2024-03-02T02:57:38;6.60;99.90
32334;DHT22;18810;53.040;8.850;2024-03-02T03:00:15;6.50;99.90
32334;DHT22;18810;53.040;8.850;2024-03-02T03:02:42;6.40;99.90
32334;DHT22;18810;53.040;8.850;2024-03-02T03:05:09;6.50;99.90
32334;DHT22;18810;53.040;8.850;2024-03-02T03:07:36;6.60;99.90
32334;DHT22;18810;53.040;8.850;2024-03-02T03:10:03;6.50;99.90
32334;DHT22;18810;53.040;8.850;2024-03-02T03:12:30;6.50;99.90
32334;DHT22;18810;53.040;8.850;2024-03-02T03:14:56;6.60;99.90
32334;DHT22;18810;53.040;8.850;2024-03-02T03:17:22;6.50;99.90
32334;DHT22;18810;53.040;8.850;2024-03-02T03:19:49;6.60;99.90
32334;DHT22;18810;53.040;8.850;2024-03-02T03:22:15;6.60;99.90
32334;DHT22;18810;53.040;8.850;2024-03-02T03:24:40;6.40;99.90
32334;DHT22;18810;53.040;8.850;2024-03-02T04:03:38;6.40;99.90
32334;DHT22;18810;53.040;8.850;2024-03-02T04:06:04;6.40;99.90
32334;DHT22;18810;53.040;8.850;2024-03-02T04:10:56;6.50;99.90
32334;DHT22;18810;53.040;8.850;2024-03-02T04:13:21;6.50;99.90
32334;DHT22;18810;53.040;8.850;2024-03-02T04:25:32;6.30;99.90
32334;DHT22;18810;53.040;8.850;2024-03-02T04:32:50;6.00;99.90
32334;DHT22;18810;53.040;8.850;2024-03-02T04:35:16;6.30;99.90
32334;DHT22;18810;53.040;8.850;2024-03-02T04:40:08;4.90;99.90
32334;DHT22;18810;53.040;8.850;2024-03-02T04:42:35;6.40;99.90
32334;DHT22;18810;53.040;8.850;2024-03-02T04:45:01;6.50;99.90
32334;DHT22;18810;53.040;8.850;2024-03-02T04:47:26;6.50;99.90
32334;DHT22;18810;53.040;8.850;2024-03-02T04:49:53;6.40;99.90
32334;DHT22;18810;53.040;8.850;2024-03-02T04:52:18;6.10;99.90
32334;DHT22;18810;53.040;8.850;2024-03-02T04:54:44;6.40;99.90
32334;DHT22;18810;53.040;8.850;2024-03-02T04:57:28;6.40;99.90
32334;DHT22;18810;53.040;8.850;2024-03-02T05:07:14;6.40;99.90
32334;DHT22;18810;53.040;8.850;2024-03-02T05:09:40;6.50;99.90
32334;DHT22;18810;53.040;8.850;2024-03-02T05:12:05;6.40;99.90
32334;DHT22;18810;53.040;8.850;2024-03-02T05:14:51;6.50;99.90
32334;DHT22;18810;53.040;8.850;2024-03-02T05:17:17;6.70;99.90
32334;DHT22;18810;53.040;8.850;2024-03-02T05:19:43;6.60;99.90
32334;DHT22;18810;53.040;8.850;2024-03-02T05:31:52;6.30;99.90
32334;DHT22;18810;53.040;8.850;2024-03-02T05:36:44;6.40;99.90
32334;DHT22;18810;53.040;8.850;2024-03-02T05:58:40;6.30;99.90
32334;DHT22;18810;53.040;8.850;2024-03-02T06:01:15;6.30;99.90
32334;DHT22;18810;53.040;8.850;2024-03-02T06:03:43;6.30;99.90
32334;DHT22;18810;53.040;8.850;2024-03-02T06:06:09;6.50;99.90
32334;DHT22;18810;53.040;8.850;2024-03-02T06:08:35;6.30;99.90
32334;DHT22;18810;53.040;8.850;2024-03-02T06:13:27;6.10;99.90
32334;DHT22;18810;53.040;8.850;2024-03-02T06:15:53;6.40;99.90
32334;DHT22;18810;53.040;8.850;2024-03-02T06:18:18;6.30;99.90
32334;DHT22;18810;53.040;8.850;2024-03-02T06:20:44;6.30;99.90
32334;DHT22;18810;53.040;8.850;2024-03-02T06:35:21;6.30;99.90
32334;DHT22;18810;53.040;8.850;2024-03-02T06:37:47;6.40;99.90
32334;DHT22;18810;53.040;8.850;2024-03-02T06:40:13;6.50;99.90
32334;DHT22;18810;53.040;8.850;2024-03-02T06:42:39;6.40;99.90
32334;DHT22;18810;53.040;8.850;2024-03-02T06:45:05;6.50;99.90
32334;DHT22;18810;53.040;8.850;2024-03-02T06:47:31;6.60;99.90
32334;DHT22;18810;53.040;8.850;2024-03-02T06:54:50;6.80;99.90
32334;DHT22;18810;53.040;8.850;2024-03-02T06:57:15;6.90;99.90
32334;DHT22;18810;53.040;8.850;2024-03-02T06:59:42;7.00;99.90
32334;DHT22;18810;53.040;8.850;2024-03-02T07:04:34;6.90;99.90
32334;DHT22;18810;53.040;8.850;2024-03-02T07:07:03;7.00;99.90
32334;DHT22;18810;53.040;8.850;2024-03-02T07:16:47;7.30;99.90
32334;DHT22;18810;53.040;8.850;2024-03-02T07:26:32;7.30;99.90
32334;DHT22;18810;53.040;8.850;2024-03-02T07:36:16;7.60;99.90
32334;DHT22;18810;53.040;8.850;2024-03-02T07:38:43;7.60;99.90
32334;DHT22;18810;53.040;8.850;2024-03-02T07:43:36;7.80;99.90
32334;DHT22;18810;53.040;8.850;2024-03-02T07:46:02;7.90;99.90
32334;DHT22;18810;53.040;8.850;2024-03-02T07:53:20;8.20;99.90
32334;DHT22;18810;53.040;8.850;2024-03-02T07:55:46;8.10;99.90
32334;DHT22;18810;53.040;8.850;2024-03-02T08:00:41;8.10;99.90
32334;DHT22;18810;53.040;8.850;2024-03-02T08:08:04;8.10;99.90
32334;DHT22;18810;53.040;8.850;2024-03-02T08:20:15;8.20;99.90
32334;DHT22;18810;53.040;8.850;2024-03-02T08:25:07;8.60;99.90
32334;DHT22;18810;53.040;8.850;2024-03-02T08:32:25;8.40;99.90
32334;DHT22;18810;53.040;8.850;2024-03-02T08:34:51;8.50;99.90
32334;DHT22;18810;53.040;8.850;2024-03-02T08:42:09;8.40;99.90
32334;DHT22;18810;53.040;8.850;2024-03-02T08:47:01;8.50;99.90
32334;DHT22;18810;53.040;8.850;2024-03-02T08:54:22;9.20;99.90
32334;DHT22;18810;53.040;8.850;2024-03-02T08:56:49;9.80;99.90
32334;DHT22;18810;53.040;8.850;2024-03-02T09:01:41;10.20;99.90
32334;DHT22;18810;53.040;8.850;2024-03-02T09:04:07;10.50;99.90
32334;DHT22;18810;53.040;8.850;2024-03-02T09:06:34;10.70;99.90
32334;DHT22;18810;53.040;8.850;2024-03-02T09:11:26;10.60;99.90
32334;DHT22;18810;53.040;8.850;2024-03-02T09:16:18;11.00;99.90
32334;DHT22;18810;53.040;8.850;2024-03-02T09:18:45;11.20;99.90
32334;DHT22;18810;53.040;8.850;2024-03-02T09:21:10;11.50;99.90
32334;DHT22;18810;53.040;8.850;2024-03-02T09:23:36;12.00;99.90
32334;DHT22;18810;53.040;8.850;2024-03-02T09:30:54;11.80;99.90
32334;DHT22;18810;53.040;8.850;2024-03-02T09:33:20;11.50;99.90
32334;DHT22;18810;53.040;8.850;2024-03-02T09:38:14;11.80;99.90
32334;DHT22;18810;53.040;8.850;2024-03-02T09:40:41;12.00;99.90
32334;DHT22;18810;53.040;8.850;2024-03-02T09:43:07;11.90;99.90
32334;DHT22;18810;53.040;8.850;2024-03-02T09:47:59;12.30;99.90
32334;DHT22;18810;53.040;8.850;2024-03-02T09:52:52;12.30;99.90
32334;DHT22;18810;53.040;8.850;2024-03-02T09:55:19;12.50;99.90
32334;DHT22;18810;53.040;8.850;2024-03-02T09:57:48;14.40;99.90
32334;DHT22;18810;53.040;8.850;2024-03-02T10:00:17;12.60;99.90
32334;DHT22;18810;53.040;8.850;2024-03-02T10:05:09;12.90;99.90
32334;DHT22;18810;53.040;8.850;2024-03-02T10:10:13;13.30;99.90
32334;DHT22;18810;53.040;8.850;2024-03-02T10:12:39;13.80;99.90
32334;DHT22;18810;53.040;8.850;2024-03-02T10:15:05;13.60;99.90
32334;DHT22;18810;53.040;8.850;2024-03-02T10:17:32;13.60;99.90
32334;DHT22;18810;53.040;8.850;2024-03-02T10:19:57;13.60;99.90
32334;DHT22;18810;53.040;8.850;2024-03-02T10:22:23;14.00;99.90
32334;DHT22;18810;53.040;8.850;2024-03-02T10:29:41;14.30;99.90
32334;DHT22;18810;53.040;8.850;2024-03-02T10:32:11;14.10;99.90
32334;DHT22;18810;53.040;8.850;2024-03-02T10:34:39;14.60;99.90
32334;DHT22;18810;53.040;8.850;2024-03-02T10:37:06;14.70;99.90
32334;DHT22;18810;53.040;8.850;2024-03-02T10:42:02;15.20;99.90
32334;DHT22;18810;53.040;8.850;2024-03-02T10:44:30;15.60;99.90
32334;DHT22;18810;53.040;8.850;2024-03-02T10:46:56;16.00;99.90
32334;DHT22;18810;53.040;8.850;2024-03-02T10:49:23;16.30;99.90
32334;DHT22;18810;53.040;8.850;2024-03-02T10:56:44;16.00;99.90
32334;DHT22;18810;53.040;8.850;2024-03-02T10:59:34;16.20;99.90
32334;DHT22;18810;53.040;8.850;2024-03-02T11:02:02;16.60;99.90
32334;DHT22;18810;53.040;8.850;2024-03-02T11:04:29;16.10;99.90
32334;DHT22;18810;53.040;8.850;2024-03-02T11:07:02;16.30;99.90
32334;DHT22;18810;53.040;8.850;2024-03-02T11:09:30;16.90;99.90
32334;DHT22;18810;53.040;8.850;2024-03-02T11:12:17;16.70;99.90
32334;DHT22;18810;53.040;8.850;2024-03-02T11:17:12;16.50;99.90
32334;DHT22;18810;53.040;8.850;2024-03-02T11:22:08;16.90;99.90
32334;DHT22;18810;53.040;8.850;2024-03-02T11:24:34;17.10;99.90
32334;DHT22;18810;53.040;8.850;2024-03-02T11:27:07;16.80;99.90
32334;DHT22;18810;53.040;8.850;2024-03-02T11:32:22;17.10;99.90
32334;DHT22;18810;53.040;8.850;2024-03-02T11:34:51;17.30;99.90
32334;DHT22;18810;53.040;8.850;2024-03-02T11:37:18;17.90;99.90
32334;DHT22;18810;53.040;8.850;2024-03-02T11:39:46;17.60;99.90
32334;DHT22;18810;53.040;8.850;2024-03-02T11:42:13;17.90;99.90
32334;DHT22;18810;53.040;8.850;2024-03-02T11:44:47;17.40;98.70
32334;DHT22;18810;53.040;8.850;2024-03-02T11:47:15;17.30;99.90
32334;DHT22;18810;53.040;8.850;2024-03-02T11:49:46;17.20;99.90
32334;DHT22;18810;53.040;8.850;2024-03-02T11:52:14;17.80;99.90
32334;DHT22;18810;53.040;8.850;2024-03-02T11:54:47;18.00;99.90
32334;DHT22;18810;53.040;8.850;2024-03-02T11:57:18;18.00;99.90
32334;DHT22;18810;53.040;8.850;2024-03-02T11:59:45;17.90;99.90
32334;DHT22;18810;53.040;8.850;2024-03-02T12:02:20;17.90;99.90
32334;DHT22;18810;53.040;8.850;2024-03-02T12:04:47;18.30;99.90
32334;DHT22;18810;53.040;8.850;2024-03-02T12:07:21;19.00;99.90
32334;DHT22;18810;53.040;8.850;2024-03-02T12:09:48;18.90;99.00
32334;DHT22;18810;53.040;8.850;2024-03-02T12:12:13;18.50;99.90
32334;DHT22;18810;53.040;8.850;2024-03-02T12:14:50;18.00;99.90
32334;DHT22;18810;53.040;8.850;2024-03-02T12:17:17;18.20;99.90
32334;DHT22;18810;53.040;8.850;2024-03-02T12:19:42;18.50;99.90
32334;DHT22;18810;53.040;8.850;2024-03-02T12:22:08;19.20;99.90
32334;DHT22;18810;53.040;8.850;2024-03-02T12:24:34;18.80;97.00
32334;DHT22;18810;53.040;8.850;2024-03-02T12:29:26;18.70;99.90
32334;DHT22;18810;53.040;8.850;2024-03-02T12:31:52;18.80;99.90
32334;DHT22;18810;53.040;8.850;2024-03-02T12:34:19;19.30;99.90
32334;DHT22;18810;53.040;8.850;2024-03-02T12:36:46;18.80;99.90
32334;DHT22;18810;53.040;8.850;2024-03-02T12:39:21;18.60;99.90
32334;DHT22;18810;53.040;8.850;2024-03-02T12:41:49;18.70;97.30
32334;DHT22;18810;53.040;8.850;2024-03-02T12:46:42;18.00;96.50
32334;DHT22;18810;53.040;8.850;2024-03-02T12:49:10;18.90;95.80
32334;DHT22;18810;53.040;8.850;2024-03-02T12:51:40;18.70;95.50
32334;DHT22;18810;53.040;8.850;2024-03-02T12:54:10;18.60;99.90
32334;DHT22;18810;53.040;8.850;2024-03-02T12:56:37;18.40;99.90
32334;DHT22;18810;53.040;8.850;2024-03-02T12:59:03;18.80;99.90
32334;DHT22;18810;53.040;8.850;2024-03-02T13:08:49;18.20;99.90
32334;DHT22;18810;53.040;8.850;2024-03-02T13:11:16;18.70;97.20
32334;DHT22;18810;53.040;8.850;2024-03-02T13:13:42;18.50;99.90
32334;DHT22;18810;53.040;8.850;2024-03-02T13:16:11;18.80;97.20
32334;DHT22;18810;53.040;8.850;2024-03-02T13:18:41;19.20;99.90
32334;DHT22;18810;53.040;8.850;2024-03-02T13:21:08;20.20;99.90
32334;DHT22;18810;53.040;8.850;2024-03-02T13:23:34;19.60;99.90
32334;DHT22;18810;53.040;8.850;2024-03-02T13:25:59;19.30;99.90
32334;DHT22;18810;53.040;8.850;2024-03-02T13:28:25;19.10;99.90
32334;DHT22;18810;53.040;8.850;2024-03-02T13:30:51;18.20;99.90
32334;DHT22;18810;53.040;8.850;2024-03-02T13:33:17;18.20;99.90
32334;DHT22;18810;53.040;8.850;2024-03-02T13:35:48;18.70;96.80
32334;DHT22;18810;53.040;8.850;2024-03-02T13:38:19;18.80;96.40
32334;DHT22;18810;53.040;8.850;2024-03-02T13:40:45;19.00;99.90
32334;DHT22;18810;53.040;8.850;2024-03-02T13:43:11;18.80;99.90
32334;DHT22;18810;53.040;8.850;2024-03-02T13:45:38;18.20;96.90
32334;DHT22;18810;53.040;8.850;2024-03-02T13:48:04;18.10;99.10
32334;DHT22;18810;53.040;8.850;2024-03-02T13:50:30;18.90;99.90
32334;DHT22;18810;53.040;8.850;2024-03-02T13:52:56;18.80;99.90
32334;DHT22;18810;53.040;8.850;2024-03-02T13:55:22;18.50;99.90
32334;DHT22;18810;53.040;8.850;2024-03-02T13:57:48;18.40;99.80
32334;DHT22;18810;53.040;8.850;2024-03-02T14:00:16;18.60;99.90
32334;DHT22;18810;53.040;8.850;2024-03-02T14:02:43;18.30;99.90
32334;DHT22;18810;53.040;8.850;2024-03-02T14:05:09;18.30;99.90
32334;DHT22;18810;53.040;8.850;2024-03-02T14:07:39;17.80;99.90
32334;DHT22;18810;53.040;8.850;2024-03-02T14:10:05;18.20;99.20
32334;DHT22;18810;53.040;8.850;2024-03-02T14:17:25;19.10;99.90
32334;DHT22;18810;53.040;8.850;2024-03-02T14:19:50;19.00;99.90
32334;DHT22;18810;53.040;8.850;2024-03-02T14:22:17;18.60;99.90
32334;DHT22;18810;53.040;8.850;2024-03-02T14:24:43;18.70;99.90
32334;DHT22;18810;53.040;8.850;2024-03-02T14:27:09;18.90;99.90
32334;DHT22;18810;53.040;8.850;2024-03-02T14:29:35;18.40;97.80
32334;DHT22;18810;53.040;8.850;2024-03-02T14:32:03;18.30;99.90
32334;DHT22;18810;53.040;8.850;2024-03-02T14:36:55;18.90;99.90
32334;DHT22;18810;53.040;8.850;2024-03-02T14:39:21;18.50;99.90
32334;DHT22;18810;53.040;8.850;2024-03-02T14:41:47;18.60;99.90
32334;DHT22;18810;53.040;8.850;2024-03-02T14:49:07;19.00;98.50
32334;DHT22;18810;53.040;8.850;2024-03-02T14:51:33;18.80;99.90
32334;DHT22;18810;53.040;8.850;2024-03-02T15:03:43;18.50;99.90
32334;DHT22;18810;53.040;8.850;2024-03-02T15:15:56;17.50;96.70
32334;DHT22;18810;53.040;8.850;2024-03-02T15:18:21;17.50;99.90
32334;DHT22;18810;53.040;8.850;2024-03-02T15:45:08;18.10;97.60
32334;DHT22;18810;53.040;8.850;2024-03-02T15:47:34;17.90;99.90
32334;DHT22;18810;53.040;8.850;2024-03-02T15:57:20;19.00;98.70
32334;DHT22;18810;53.040;8.850;2024-03-02T15:59:46;17.40;99.90
32334;DHT22;18810;53.040;8.850;2024-03-02T16:14:24;16.30;99.90
32334;DHT22;18810;53.040;8.850;2024-03-02T16:19:16;16.10;99.90
32334;DHT22;18810;53.040;8.850;2024-03-02T16:21:41;16.20;99.90
32334;DHT22;18810;53.040;8.850;2024-03-02T16:24:08;15.80;99.90
32334;DHT22;18810;53.040;8.850;2024-03-02T16:26:34;15.70;99.90
32334;DHT22;18810;53.040;8.850;2024-03-02T16:28:59;15.60;99.90
32334;DHT22;18810;53.040;8.850;2024-03-02T16:36:18;15.30;99.90
32334;DHT22;18810;53.040;8.850;2024-03-02T16:38:44;15.40;99.90
32334;DHT22;18810;53.040;8.850;2024-03-02T16:41:10;15.60;99.90
32334;DHT22;18810;53.040;8.850;2024-03-02T16:43:35;15.50;99.90
32334;DHT22;18810;53.040;8.850;2024-03-02T17:00:41;15.30;99.90
32334;DHT22;18810;53.040;8.850;2024-03-02T17:03:06;15.20;99.90
32334;DHT22;18810;53.040;8.850;2024-03-02T17:05:32;14.90;99.90
32334;DHT22;18810;53.040;8.850;2024-03-02T17:07:58;14.80;99.90
32334;DHT22;18810;53.040;8.850;2024-03-02T17:12:50;14.60;99.90
32334;DHT22;18810;53.040;8.850;2024-03-02T17:15:16;14.50;99.90
32334;DHT22;18810;53.040;8.850;2024-03-02T17:20:08;14.50;99.90
32334;DHT22;18810;53.040;8.850;2024-03-02T17:22:35;13.80;99.90
32334;DHT22;18810;53.040;8.850;2024-03-02T17:25:01;14.00;99.90
32334;DHT22;18810;53.040;8.850;2024-03-02T17:29:57;13.80;99.90
32334;DHT22;18810;53.040;8.850;2024-03-02T17:32:22;13.90;99.90
32334;DHT22;18810;53.040;8.850;2024-03-02T18:06:27;13.00;99.90
32334;DHT22;18810;53.040;8.850;2024-03-02T18:11:19;12.70;99.90
32334;DHT22;18810;53.040;8.850;2024-03-02T18:13:45;12.70;99.90
32334;DHT22;18810;53.040;8.850;2024-03-02T18:16:14;12.80;99.90
32334;DHT22;18810;53.040;8.850;2024-03-02T18:18:41;12.80;99.90
32334;DHT22;18810;53.040;8.850;2024-03-02T18:21:07;12.80;99.90
32334;DHT22;18810;53.040;8.850;2024-03-02T18:23:32;12.50;99.90
32334;DHT22;18810;53.040;8.850;2024-03-02T18:25:58;12.50;99.90
32334;DHT22;18810;53.040;8.850;2024-03-02T18:28:24;12.80;99.90
32334;DHT22;18810;53.040;8.850;2024-03-02T18:40:34;12.20;99.90
32334;DHT22;18810;53.040;8.850;2024-03-02T18:50:20;12.10;99.90
32334;DHT22;18810;53.040;8.850;2024-03-02T18:55:12;11.90;99.90
32334;DHT22;18810;53.040;8.850;2024-03-02T18:57:38;12.10;99.90
32334;DHT22;18810;53.040;8.850;2024-03-02T19:00:05;12.20;99.90
32334;DHT22;18810;53.040;8.850;2024-03-02T19:05:00;12.00;99.90
32334;DHT22;18810;53.040;8.850;2024-03-02T19:07:29;11.80;99.90
32334;DHT22;18810;53.040;8.850;2024-03-02T19:09:54;11.90;99.90
32334;DHT22;18810;53.040;8.850;2024-03-02T19:14:49;11.70;99.90
32334;DHT22;18810;53.040;8.850;2024-03-02T19:19:41;11.70;99.90
32334;DHT22;18810;53.040;8.850;2024-03-02T19:24:38;11.70;99.90
32334;DHT22;18810;53.040;8.850;2024-03-02T19:27:05;11.50;99.90
32334;DHT22;18810;53.040;8.850;2024-03-02T19:29:31;11.50;99.90
32334;DHT22;18810;53.040;8.850;2024-03-02T19:32:00;11.50;99.90
32334;DHT22;18810;53.040;8.850;2024-03-02T19:39:20;11.40;99.90
32334;DHT22;18810;53.040;8.850;2024-03-02T19:46:43;11.50;99.90
32334;DHT22;18810;53.040;8.850;2024-03-02T19:49:09;11.30;99.90
32334;DHT22;18810;53.040;8.850;2024-03-02T19:56:30;11.40;99.90
32334;DHT22;18810;53.040;8.850;2024-03-02T19:58:56;11.20;99.90
32334;DHT22;18810;53.040;8.850;2024-03-02T20:06:15;11.20;99.90
32334;DHT22;18810;53.040;8.850;2024-03-02T20:08:43;11.00;99.90
32334;DHT22;18810;53.040;8.850;2024-03-02T20:11:08;10.90;99.90
32334;DHT22;18810;53.040;8.850;2024-03-02T20:13:34;11.20;99.90
32334;DHT22;18810;53.040;8.850;2024-03-02T20:16:00;11.00;99.90
32334;DHT22;18810;53.040;8.850;2024-03-02T20:18:26;11.10;99.90
32334;DHT22;18810;53.040;8.850;2024-03-02T20:47:44;10.80;99.90
32334;DHT22;18810;53.040;8.850;2024-03-02T21:12:09;10.10;99.90
32334;DHT22;18810;53.040;8.850;2024-03-02T21:21:57;10.20;99.90
32334;DHT22;18810;53.040;8.850;2024-03-02T21:26:49;10.20;99.90
32334;DHT22;18810;53.040;8.850;2024-03-02T21:29:16;10.10;99.90
32334;DHT22;18810;53.040;8.850;2024-03-02T21:31:45;10.20;99.90
32334;DHT22;18810;53.040;8.850;2024-03-02T21:34:11;10.20;99.90
32334;DHT22;18810;53.040;8.850;2024-03-02T21:36:36;10.10;99.90
32334;DHT22;18810;53.040;8.850;2024-03-02T21:41:28;10.10;99.90
32334;DHT22;18810;53.040;8.850;2024-03-02T21:51:19;9.80;99.90
32334;DHT22;18810;53.040;8.850;2024-03-02T21:53:45;9.80;99.90
32334;DHT22;18810;53.040;8.850;2024-03-02T21:56:11;9.90;99.90
32334;DHT22;18810;53.040;8.850;2024-03-02T21:58:38;9.90;99.90
32334;DHT22;18810;53.040;8.850;2024-03-02T22:13:15;9.90;99.90
32334;DHT22;18810;53.040;8.850;2024-03-02T22:25:25;9.90;99.90
32334;DHT22;18810;53.040;8.850;2024-03-02T22:30:21;9.70;99.90
32334;DHT22;18810;53.040;8.850;2024-03-02T22:32:48;9.30;99.90
32334;DHT22;18810;53.040;8.850;2024-03-02T22:35:15;9.70;99.90
32334;DHT22;18810;53.040;8.850;2024-03-02T22:37:40;9.70;99.90
32334;DHT22;18810;53.040;8.850;2024-03-02T22:40:06;9.50;99.90
32334;DHT22;18810;53.040;8.850;2024-03-02T22:42:32;9.70;99.90
32334;DHT22;18810;53.040;8.850;2024-03-02T22:44:58;9.30;99.90
32334;DHT22;18810;53.040;8.850;2024-03-02T22:47:24;9.40;99.90
32334;DHT22;18810;53.040;8.850;2024-03-02T22:59:49;9.40;99.90
32334;DHT22;18810;53.040;8.850;2024-03-02T23:02:15;9.30;99.90
32334;DHT22;18810;53.040;8.850;2024-03-02T23:04:44;9.50;99.90
32334;DHT22;18810;53.040;8.850;2024-03-02T23:07:10;9.50;99.90
32334;DHT22;18810;53.040;8.850;2024-03-02T23:21:48;9.40;99.90
32334;DHT22;18810;53.040;8.850;2024-03-02T23:24:14;9.30;99.90
32334;DHT22;18810;53.040;8.850;2024-03-02T23:33:58;9.40;99.90
32334;DHT22;18810;53.040;8.850;2024-03-02T23:36:32;9.30;99.90
32334;DHT22;18810;53.040;8.850;2024-03-02T23:38:58;9.20;99.90
32334;DHT22;18810;53.040;8.850;2024-03-02T23:41:27;9.20;99.90
32334;DHT22;18810;53.040;8.850;2024-03-02T23:43:52;9.10;99.90
32334;DHT22;18810;53.040;8.850;2024-03-02T23:46:23;9.40;99.90
32334;DHT22;18810;53.040;8.850;2024-03-02T23:48:49;9.30;99.90
32334;DHT22;18810;53.040;8.850;2024-03-02T23:53:40;9.10;99.90
32334;DHT22;18810;53.040;8.850;2024-03-02T23:56:11;9.10;99.90
32334;DHT22;18810;53.040;8.850;2024-03-02T23:58:37;9.10;99.90
